This is the latest recevied weather packets stored in our database for station/object N5GAH-13. If no packets are shown the sender has not sent any weather packets the latest 10 day(s).
| Time | Temp. | Humidity | Pressure | Rain* | Wind** | Luminosity | Snow |
|---|---|---|---|---|---|---|---|
| 1788061624 | 84° F | 42% | 766.9 mmHg | 0 in | - | - | - |
| 1788058024 | 86° F | 39% | 766.4 mmHg | 0 in | - | - | - |
| 1788056224 | 88° F | 37% | 766.2 mmHg | 0 in | - | - | - |
| 1788054424 | 90° F | 35% | 766 mmHg | 0 in | - | - | - |
| 1788052624 | 93° F | 32% | 765.8 mmHg | 0 in | - | - | - |
| 1788050824 | 95° F | 30% | 765.7 mmHg | 0 in | - | - | - |
| 1788049024 | 97° F | 29% | 765.7 mmHg | 0 in | - | - | - |
| 1788047224 | 99° F | 27% | 765.7 mmHg | 0 in | - | - | - |
| 1788045424 | 100° F | 26% | 765.7 mmHg | 0 in | - | - | - |
| 1788043624 | 101° F | 26% | 765.7 mmHg | 0 in | - | - | - |
| 1788041824 | 102° F | 25% | 766 mmHg | 0 in | - | - | - |
| 1788040024 | 102° F | 25% | 766.1 mmHg | 0 in | - | - | - |
| 1788038224 | 102° F | 26% | 766.5 mmHg | 0 in | - | - | - |
| 1788036424 | 102° F | 26% | 766.7 mmHg | 0 in | - | - | - |
| 1788034624 | 102° F | 26% | 767.1 mmHg | 0 in | - | - | - |
| 1788032824 | 101° F | 27% | 767.6 mmHg | 0 in | - | - | - |
| 1788031024 | 101° F | 28% | 767.7 mmHg | 0 in | - | - | - |
| 1788027424 | 99° F | 29% | 768.5 mmHg | 0 in | - | - | - |
| 1788023824 | 96° F | 33% | 768.9 mmHg | 0 in | - | - | - |
| 1788022024 | 95° F | 38% | 768.9 mmHg | 0 in | - | - | - |
| 1788020224 | 92° F | 41% | 769.1 mmHg | 0 in | - | - | - |
| 1788018426 | 88° F | 49% | 769.1 mmHg | 0 in | - | - | - |
| 1788016624 | 85° F | 53% | 769.1 mmHg | 0 in | - | - | - |
| 1788014823 | 81° F | 59% | 769 mmHg | 0 in | - | - | - |
| 1788013024 | 78° F | 63% | 769.2 mmHg | 0 in | - | - | - |
* Rain latest hour (hover to see other rain measurements)
** Current wind speed in m/s (hover to see current wind gust speed)